createdAt,value
2023-04-07T00:01:20.784Z,97314.25
2023-04-07T00:03:52.182Z,97320.94
2023-04-07T00:06:20.409Z,97324.69
2023-04-07T00:08:48.447Z,97314.03
2023-04-07T00:11:16.527Z,97316.44
2023-04-07T00:13:46.039Z,97314.72
2023-04-07T00:16:14.537Z,97313.75
2023-04-07T00:18:42.571Z,97303.69
2023-04-07T00:21:10.626Z,97304.44
2023-04-07T00:23:39.131Z,97311.34
2023-04-07T00:26:07.225Z,97316.03
2023-04-07T00:28:35.338Z,97311.09
2023-04-07T00:31:04.827Z,97307.00
2023-04-07T00:33:32.888Z,97307.63
2023-04-07T00:36:00.979Z,97309.53
2023-04-07T00:38:29.030Z,97311.25
2023-04-07T00:40:59.397Z,97306.41
2023-04-07T00:43:27.463Z,97307.22
2023-04-07T00:46:06.045Z,97309.28
2023-04-07T00:48:34.252Z,97303.63
2023-04-07T00:51:02.333Z,97304.34
2023-04-07T00:53:30.653Z,97299.25
2023-04-07T00:55:58.888Z,97298.91
2023-04-07T00:58:27.134Z,97299.72
2023-04-07T01:00:58.095Z,97296.59
2023-04-07T01:03:30.845Z,97293.59
2023-04-07T01:06:01.429Z,97291.88
2023-04-07T01:08:34.612Z,97292.88
2023-04-07T01:11:07.066Z,97280.63
2023-04-07T01:13:37.125Z,97287.28
2023-04-07T01:16:08.306Z,97289.34
2023-04-07T01:18:38.220Z,97277.59
2023-04-07T01:21:08.935Z,97280.38
2023-04-07T01:23:53.378Z,97281.59
2023-04-07T01:26:22.853Z,97282.69
2023-04-07T01:29:06.049Z,97277.97
2023-04-07T01:31:35.923Z,97274.53
2023-04-07T01:34:03.997Z,97278.44
2023-04-07T01:36:33.810Z,97274.47
2023-04-07T01:39:01.990Z,97272.25
2023-04-07T01:41:30.043Z,97278.78
2023-04-07T01:43:58.073Z,97274.56
2023-04-07T01:46:28.759Z,97280.03
2023-04-07T01:48:58.379Z,97280.38
2023-04-07T01:51:28.740Z,97275.53
2023-04-07T01:53:57.232Z,97285.69
2023-04-07T01:56:32.860Z,97278.06
2023-04-07T01:59:00.894Z,97281.59
2023-04-07T02:01:29.106Z,97278.06
2023-04-07T02:04:09.021Z,97272.88
2023-04-07T02:06:40.231Z,97277.59
2023-04-07T02:09:11.008Z,97272.38
2023-04-07T02:11:39.092Z,97273.22
2023-04-07T02:14:07.627Z,97263.78
2023-04-07T02:16:36.239Z,97270.94
2023-04-07T02:19:05.989Z,97271.06
2023-04-07T02:21:35.919Z,97268.88
2023-04-07T02:24:09.907Z,97272.88
2023-04-07T02:26:37.977Z,97277.97
2023-04-07T02:29:06.441Z,97266.31
2023-04-07T02:31:34.568Z,97267.91
2023-04-07T02:34:02.657Z,97263.78
2023-04-07T02:36:32.137Z,97269.97
2023-04-07T02:39:02.961Z,97265.13
2023-04-07T02:41:31.197Z,97273.00
2023-04-07T02:43:59.220Z,97275.06
2023-04-07T02:46:27.260Z,97269.09
2023-04-07T02:48:55.330Z,97274.31
2023-04-07T02:51:23.948Z,97264.50
2023-04-07T02:53:53.515Z,97270.06
2023-04-07T02:56:21.950Z,97270.34
2023-04-07T02:58:49.977Z,97260.88
2023-04-07T03:01:18.133Z,97270.56
2023-04-07T03:03:47.971Z,97269.56
2023-04-07T03:06:16.164Z,97259.78
2023-04-07T03:08:44.333Z,97262.34
2023-04-07T03:11:15.716Z,97261.97
2023-04-07T03:13:43.753Z,97262.19
2023-04-07T03:16:11.790Z,97270.31
2023-04-07T03:18:40.034Z,97269.00
2023-04-07T03:21:08.275Z,97267.63
2023-04-07T03:23:36.277Z,97263.66
2023-04-07T03:26:04.438Z,97267.53
2023-04-07T03:28:33.934Z,97265.47
2023-04-07T03:31:02.057Z,97269.09
2023-04-07T03:33:30.137Z,97262.22
2023-04-07T03:36:03.094Z,97262.91
2023-04-07T03:38:31.126Z,97256.16
2023-04-07T03:40:59.215Z,97263.66
2023-04-07T03:43:27.368Z,97261.47
2023-04-07T03:45:56.794Z,97265.00
2023-04-07T03:48:24.825Z,97262.53
2023-04-07T03:50:52.831Z,97266.44
2023-04-07T03:53:21.044Z,97266.69
2023-04-07T03:55:52.255Z,97267.19
2023-04-07T03:58:20.824Z,97265.72
2023-04-07T04:00:50.901Z,97272.25
2023-04-07T04:03:23.098Z,97273.38
2023-04-07T04:05:51.190Z,97270.94
2023-04-07T04:08:19.666Z,97275.28
2023-04-07T04:10:50.038Z,97277.47
2023-04-07T04:13:18.180Z,97271.41
2023-04-07T04:15:46.227Z,97280.75
2023-04-07T04:18:15.724Z,97277.00
2023-04-07T04:20:45.274Z,97273.47
2023-04-07T04:23:13.307Z,97281.22
2023-04-07T04:25:41.329Z,97283.03
2023-04-07T04:28:09.706Z,97285.69
2023-04-07T04:30:37.984Z,97278.53
2023-04-07T04:33:06.026Z,97280.34
2023-04-07T04:35:34.190Z,97280.63
2023-04-07T04:38:04.051Z,97284.25
2023-04-07T04:40:32.223Z,97288.38
2023-04-07T04:43:00.525Z,97287.53
2023-04-07T04:45:28.523Z,97286.22
2023-04-07T04:47:57.167Z,97285.59
2023-04-07T04:50:25.221Z,97289.75
2023-04-07T04:52:53.206Z,97286.56
2023-04-07T04:55:22.652Z,97290.56
2023-04-07T04:57:53.898Z,97294.47
2023-04-07T05:00:22.607Z,97294.34
2023-04-07T05:02:50.911Z,97294.06
2023-04-07T05:05:21.890Z,97295.63
2023-04-07T05:07:50.065Z,97292.97
2023-04-07T05:10:19.331Z,97294.78
2023-04-07T05:12:48.873Z,97297.47
2023-04-07T05:15:17.264Z,97296.47
2023-04-07T05:17:50.435Z,97302.16
2023-04-07T05:20:18.822Z,97299.59
2023-04-07T05:22:47.001Z,97301.19
2023-04-07T05:25:15.022Z,97295.56
2023-04-07T05:27:43.345Z,97302.81
2023-04-07T05:30:16.409Z,97301.97
2023-04-07T05:32:44.471Z,97297.66
2023-04-07T05:35:12.554Z,97303.81
2023-04-07T05:37:40.764Z,97305.03
2023-04-07T05:40:10.121Z,97307.25
2023-04-07T05:42:38.069Z,97305.66
2023-04-07T05:45:06.897Z,97309.00
2023-04-07T05:47:36.325Z,97316.44
2023-04-07T05:50:04.506Z,97317.44
2023-04-07T05:52:32.688Z,97321.91
2023-04-07T05:55:07.391Z,97324.75
2023-04-07T05:57:38.591Z,97320.50
2023-04-07T06:00:07.745Z,97334.59
2023-04-07T06:02:37.390Z,97330.78
2023-04-07T06:05:09.037Z,97333.75
2023-04-07T06:07:37.033Z,97333.47
2023-04-07T06:10:06.237Z,97339.59
2023-04-07T06:12:34.356Z,97337.25
2023-04-07T06:15:05.387Z,97346.97
2023-04-07T06:17:33.437Z,97352.25
2023-04-07T06:20:02.978Z,97351.53
2023-04-07T06:22:30.972Z,97349.56
2023-04-07T06:24:58.963Z,97353.13
2023-04-07T06:27:27.473Z,97353.28
2023-04-07T06:29:55.411Z,97360.53
2023-04-07T06:32:23.815Z,97362.81
2023-04-07T06:34:52.233Z,97361.63
2023-04-07T06:37:21.724Z,97365.28
2023-04-07T06:39:50.480Z,97362.75
2023-04-07T06:42:18.428Z,97363.59
2023-04-07T06:44:46.431Z,97366.00
2023-04-07T06:47:14.456Z,97369.13
2023-04-07T06:49:42.457Z,97377.53
2023-04-07T06:52:10.492Z,97374.97
2023-04-07T06:54:39.919Z,97379.47
2023-04-07T06:57:11.983Z,97380.56
2023-04-07T06:59:39.970Z,97386.72
2023-04-07T07:02:09.058Z,97385.38
2023-04-07T07:04:40.285Z,97393.00
2023-04-07T07:07:08.330Z,97402.78
2023-04-07T07:09:36.352Z,97392.25
2023-04-07T07:12:07.585Z,97392.00
2023-04-07T07:14:36.177Z,97393.22
2023-04-07T07:17:07.088Z,97407.88
2023-04-07T07:19:35.611Z,97412.22
2023-04-07T07:22:04.482Z,97412.56
2023-04-07T07:24:34.118Z,97414.63
2023-04-07T07:27:03.562Z,97421.72
2023-04-07T07:29:33.198Z,97420.63
2023-04-07T07:32:01.374Z,97417.81
2023-04-07T07:34:29.491Z,97420.66
2023-04-07T07:36:57.899Z,97427.50
2023-04-07T07:39:26.006Z,97433.06
2023-04-07T07:41:54.086Z,97422.69
2023-04-07T07:44:22.890Z,97431.88
2023-04-07T07:46:52.438Z,97439.63
2023-04-07T07:49:21.533Z,97440.41
2023-04-07T07:51:49.764Z,97439.50
2023-04-07T07:54:17.961Z,97441.84
2023-04-07T07:56:45.959Z,97443.28
2023-04-07T07:59:14.880Z,97453.00
2023-04-07T08:01:44.163Z,97456.69
2023-04-07T08:04:13.716Z,97455.91
2023-04-07T08:06:42.124Z,97450.59
2023-04-07T08:09:10.131Z,97461.81
2023-04-07T08:11:41.033Z,97465.94
2023-04-07T08:14:09.969Z,97461.75
2023-04-07T08:16:38.316Z,97467.28
2023-04-07T08:19:06.444Z,97473.72
2023-04-07T08:21:35.863Z,97468.22
2023-04-07T08:24:04.742Z,97470.09
2023-04-07T08:26:32.854Z,97473.63
2023-04-07T08:29:00.879Z,97468.63
2023-04-07T08:31:28.965Z,97476.31
2023-04-07T08:33:58.284Z,97484.94
2023-04-07T08:36:27.586Z,97481.00
2023-04-07T08:38:58.810Z,97486.84
2023-04-07T08:41:30.525Z,97497.88
2023-04-07T08:43:58.835Z,97486.00
2023-04-07T08:46:27.364Z,97489.16
2023-04-07T08:48:55.420Z,97484.78
2023-04-07T08:51:27.398Z,97492.72
2023-04-07T08:53:58.192Z,97493.59
2023-04-07T08:56:27.557Z,97489.47
2023-04-07T08:58:55.641Z,97497.56
2023-04-07T09:01:23.864Z,97502.34
2023-04-07T09:03:52.194Z,97502.38
2023-04-07T09:06:23.984Z,97498.38
2023-04-07T09:08:52.557Z,97507.34
2023-04-07T09:11:20.767Z,97503.81
2023-04-07T09:13:50.780Z,97509.75
2023-04-07T09:16:19.361Z,97516.41
2023-04-07T09:18:47.836Z,97512.41
2023-04-07T09:21:17.487Z,97515.50
2023-04-07T09:23:45.758Z,97509.41
2023-04-07T09:26:21.212Z,97512.03
2023-04-07T09:28:51.951Z,97505.91
2023-04-07T09:31:21.307Z,97513.28
2023-04-07T09:33:50.239Z,97516.28
2023-04-07T09:36:19.711Z,97513.03
2023-04-07T09:38:48.937Z,97514.97
2023-04-07T09:41:17.916Z,97519.97
2023-04-07T09:43:47.100Z,97516.81
2023-04-07T09:46:18.077Z,97516.81
2023-04-07T09:48:48.741Z,97521.84
2023-04-07T09:51:17.957Z,97532.47
2023-04-07T09:53:48.009Z,97532.44
2023-04-07T09:56:17.466Z,97516.94
2023-04-07T09:58:46.530Z,97523.88
2023-04-07T10:01:16.922Z,97525.69
2023-04-07T10:03:46.808Z,97525.31
2023-04-07T10:06:15.217Z,97526.91
2023-04-07T10:08:43.819Z,97527.75
2023-04-07T10:11:11.898Z,97532.09
2023-04-07T10:13:41.298Z,97527.00
2023-04-07T10:16:09.660Z,97530.19
2023-04-07T10:18:39.272Z,97531.75
2023-04-07T10:21:09.487Z,97528.72
2023-04-07T10:23:45.055Z,97535.41
2023-04-07T10:26:14.308Z,97540.03
2023-04-07T10:28:42.533Z,97538.06
2023-04-07T10:31:10.773Z,97533.94
2023-04-07T10:33:51.796Z,97547.31
2023-04-07T10:36:20.869Z,97545.97
2023-04-07T10:39:23.638Z,97545.59
2023-04-07T10:41:53.445Z,97544.63
2023-04-07T10:44:46.896Z,97549.47
2023-04-07T10:47:15.091Z,97547.44
2023-04-07T10:50:02.985Z,97554.19
2023-04-07T10:52:31.154Z,97555.66
2023-04-07T10:55:31.679Z,97556.63
2023-04-07T10:58:19.060Z,97551.06
2023-04-07T11:01:16.802Z,97558.47
2023-04-07T11:03:54.726Z,97561.63
2023-04-07T11:06:24.309Z,97558.22
2023-04-07T11:08:52.358Z,97562.13
2023-04-07T11:11:23.438Z,97565.78
2023-04-07T11:13:52.138Z,97563.81
2023-04-07T11:16:21.364Z,97555.91
2023-04-07T11:18:49.872Z,97563.56
2023-04-07T11:21:19.209Z,97576.22
2023-04-07T11:23:49.388Z,97575.34
2023-04-07T11:26:17.665Z,97571.69
2023-04-07T11:28:47.249Z,97572.19
2023-04-07T11:31:23.040Z,97576.56
2023-04-07T11:33:53.891Z,97581.41
2023-04-07T11:36:28.958Z,97582.88
2023-04-07T11:38:58.756Z,97585.78
2023-04-07T11:41:27.726Z,97581.91
2023-04-07T11:44:06.787Z,97577.19
2023-04-07T11:46:35.192Z,97580.22
2023-04-07T11:49:13.358Z,97585.66
2023-04-07T11:51:42.221Z,97585.78
2023-04-07T11:54:11.834Z,97586.41
2023-04-07T11:56:44.220Z,97594.25
2023-04-07T11:59:23.261Z,97583.63
2023-04-07T12:01:52.120Z,97597.81
2023-04-07T12:04:21.221Z,97593.56
2023-04-07T12:06:49.960Z,97591.88
2023-04-07T12:09:29.796Z,97600.13
2023-04-07T12:11:58.422Z,97592.00
2023-04-07T12:14:27.857Z,97606.53
2023-04-07T12:16:58.196Z,97605.69
2023-04-07T12:19:27.268Z,97601.22
2023-04-07T12:21:57.721Z,97609.72
2023-04-07T12:24:25.784Z,97601.72
2023-04-07T12:26:55.484Z,97619.31
2023-04-07T12:29:24.192Z,97619.47
2023-04-07T12:31:52.152Z,97616.19
2023-04-07T12:34:20.215Z,97619.91
2023-04-07T12:36:51.702Z,97615.94
2023-04-07T12:39:20.916Z,97626.72
2023-04-07T12:41:53.420Z,97627.31
2023-04-07T12:44:22.942Z,97628.19
2023-04-07T12:46:50.991Z,97627.69
2023-04-07T12:49:19.038Z,97629.66
2023-04-07T12:51:47.022Z,97637.75
2023-04-07T12:54:15.121Z,97631.47
2023-04-07T12:56:43.140Z,97638.03
2023-04-07T12:59:11.119Z,97642.28
2023-04-07T13:01:41.157Z,97637.94
2023-04-07T13:04:09.297Z,97633.53
2023-04-07T13:06:37.356Z,97637.94
2023-04-07T13:09:05.786Z,97637.19
2023-04-07T13:11:33.873Z,97639.13
2023-04-07T13:14:02.009Z,97637.91
2023-04-07T13:16:30.061Z,97649.69
2023-04-07T13:18:59.427Z,97643.63
2023-04-07T13:21:45.441Z,97641.22
2023-04-07T13:24:14.877Z,97644.97
2023-04-07T13:26:42.892Z,97657.22
2023-04-07T13:29:10.914Z,97643.72
2023-04-07T13:31:39.413Z,97647.13
2023-04-07T13:34:08.814Z,97652.00
2023-04-07T13:36:37.008Z,97655.38
2023-04-07T13:39:05.200Z,97663.50
2023-04-07T13:41:33.286Z,97667.16
2023-04-07T13:44:04.705Z,97671.91
2023-04-07T13:46:33.180Z,97667.41
2023-04-07T13:49:01.360Z,97673.47
2023-04-07T13:51:30.757Z,97672.34
2023-04-07T13:53:58.723Z,97671.59
2023-04-07T13:56:26.819Z,97670.19
2023-04-07T13:58:54.780Z,97675.50
2023-04-07T14:01:22.815Z,97686.06
2023-04-07T14:03:50.980Z,97674.53
2023-04-07T14:06:22.953Z,97675.91
2023-04-07T14:08:52.414Z,97676.00
2023-04-07T14:11:20.460Z,97678.50
2023-04-07T14:13:49.044Z,97673.19
2023-04-07T14:16:17.639Z,97678.94
2023-04-07T14:18:46.912Z,97678.94
2023-04-07T14:21:15.297Z,97679.69
2023-04-07T14:23:43.429Z,97676.66
2023-04-07T14:26:13.209Z,97679.94
2023-04-07T14:28:41.616Z,97661.25
2023-04-07T14:31:14.260Z,97680.31
2023-04-07T14:33:42.378Z,97675.31
2023-04-07T14:36:10.380Z,97682.47
2023-04-07T14:38:38.415Z,97672.91
2023-04-07T14:41:10.030Z,97686.38
2023-04-07T14:43:40.218Z,97680.69
2023-04-07T14:46:08.380Z,97682.41
2023-04-07T14:48:36.688Z,97682.78
2023-04-07T14:51:09.871Z,97683.00
2023-04-07T14:53:38.190Z,97678.38
2023-04-07T14:56:06.317Z,97680.19
2023-04-07T14:58:37.399Z,97683.88
2023-04-07T15:01:07.163Z,97679.44
2023-04-07T15:03:35.747Z,97682.22
2023-04-07T15:06:07.939Z,97688.66
2023-04-07T15:08:36.449Z,97684.66
2023-04-07T15:11:07.760Z,97680.63
2023-04-07T15:13:39.088Z,97677.84
2023-04-07T15:16:12.688Z,97684.41
2023-04-07T15:18:42.179Z,97683.47
2023-04-07T15:21:10.394Z,97691.38
2023-04-07T15:23:38.958Z,97688.72
2023-04-07T15:26:07.481Z,97686.16
2023-04-07T15:28:35.805Z,97679.09
2023-04-07T15:31:14.809Z,97687.38
2023-04-07T15:33:44.236Z,97691.50
2023-04-07T15:36:12.458Z,97687.13
2023-04-07T15:38:40.715Z,97678.84
2023-04-07T15:41:08.729Z,97674.88
2023-04-07T15:43:37.580Z,97684.94
2023-04-07T15:46:05.753Z,97680.81
2023-04-07T15:48:35.104Z,97681.44
2023-04-07T15:51:03.190Z,97684.34
2023-04-07T15:53:31.283Z,97689.91
2023-04-07T15:55:59.356Z,97692.34
2023-04-07T15:58:27.351Z,97691.38
2023-04-07T16:00:55.853Z,97709.09
2023-04-07T16:03:24.512Z,97701.81
2023-04-07T16:05:54.060Z,97704.00
2023-04-07T16:08:23.506Z,97707.19
2023-04-07T16:10:51.582Z,97709.00
2023-04-07T16:13:20.050Z,97702.19
2023-04-07T16:15:50.036Z,97702.81
2023-04-07T16:18:18.138Z,97708.28
2023-04-07T16:20:46.282Z,97707.56
2023-04-07T16:23:16.080Z,97712.50
2023-04-07T16:25:44.198Z,97708.38
2023-04-07T16:28:12.236Z,97705.34
2023-04-07T16:30:40.461Z,97713.50
2023-04-07T16:33:08.926Z,97712.25
2023-04-07T16:35:36.981Z,97717.47
2023-04-07T16:38:06.143Z,97720.47
2023-04-07T16:40:36.050Z,97726.38
2023-04-07T16:43:04.312Z,97726.50
2023-04-07T16:45:32.440Z,97725.00
2023-04-07T16:48:00.992Z,97737.06
2023-04-07T16:50:29.111Z,97733.75
2023-04-07T16:52:57.753Z,97738.38
2023-04-07T16:55:25.761Z,97733.41
2023-04-07T16:57:55.667Z,97739.84
2023-04-07T17:00:23.739Z,97749.25
2023-04-07T17:02:55.072Z,97742.19
2023-04-07T17:05:24.105Z,97750.94
2023-04-07T17:07:52.659Z,97747.66
2023-04-07T17:10:20.703Z,97750.22
2023-04-07T17:12:53.155Z,97757.63
2023-04-07T17:15:23.253Z,97764.41
2023-04-07T17:17:51.507Z,97760.31
2023-04-07T17:20:22.769Z,97774.00
2023-04-07T17:22:51.303Z,97768.50
2023-04-07T17:25:19.527Z,97783.59
2023-04-07T17:27:48.147Z,97783.41
2023-04-07T17:30:16.318Z,97781.66
2023-04-07T17:32:46.168Z,97787.75
2023-04-07T17:35:14.170Z,97787.16
2023-04-07T17:37:42.459Z,97788.13
2023-04-07T17:40:11.501Z,97794.81
2023-04-07T17:42:39.977Z,97792.63
2023-04-07T17:45:10.856Z,97795.66
2023-04-07T17:47:39.056Z,97797.03
2023-04-07T17:50:09.775Z,97805.75
2023-04-07T17:52:37.800Z,97806.53
2023-04-07T17:55:06.968Z,97815.09
2023-04-07T17:57:36.273Z,97816.88
2023-04-07T18:00:09.185Z,97813.66
2023-04-07T18:02:40.270Z,97811.41
2023-04-07T18:05:10.966Z,97813.91
2023-04-07T18:07:38.987Z,97818.09
2023-04-07T18:10:09.536Z,97823.84
2023-04-07T18:12:37.546Z,97822.75
2023-04-07T18:15:06.194Z,97830.81
2023-04-07T18:17:34.537Z,97832.94
2023-04-07T18:20:04.840Z,97833.81
2023-04-07T18:22:34.656Z,97834.66
2023-04-07T18:25:02.856Z,97836.09
2023-04-07T18:27:30.831Z,97841.00
2023-04-07T18:29:59.326Z,97845.13
2023-04-07T18:32:27.388Z,97848.31
2023-04-07T18:34:55.398Z,97849.66
2023-04-07T18:37:23.424Z,97850.38
2023-04-07T18:39:53.866Z,97855.19
2023-04-07T18:42:21.849Z,97852.19
2023-04-07T18:44:49.880Z,97862.03
2023-04-07T18:47:18.178Z,97867.22
2023-04-07T18:49:46.245Z,97870.78
2023-04-07T18:52:14.614Z,97872.41
2023-04-07T18:54:42.627Z,97876.78
2023-04-07T18:57:15.257Z,97877.53
2023-04-07T18:59:43.725Z,97880.75
2023-04-07T19:02:11.848Z,97888.84
2023-04-07T19:04:40.872Z,97896.84
2023-04-07T19:07:08.948Z,97897.59
2023-04-07T19:09:37.905Z,97903.34
2023-04-07T19:12:06.594Z,97902.19
2023-04-07T19:14:36.069Z,97909.84
2023-04-07T19:17:04.127Z,97910.44
2023-04-07T19:19:32.681Z,97910.84
2023-04-07T19:22:14.756Z,97912.34
2023-04-07T19:24:42.689Z,97909.69
2023-04-07T19:27:12.091Z,97911.47
2023-04-07T19:29:45.736Z,97916.56
2023-04-07T19:32:14.562Z,97913.72
2023-04-07T19:34:42.719Z,97920.28
2023-04-07T19:37:11.138Z,97926.75
2023-04-07T19:39:40.204Z,97926.84
2023-04-07T19:42:08.878Z,97933.56
2023-04-07T19:44:37.646Z,97943.06
2023-04-07T19:47:07.158Z,97943.94
2023-04-07T19:49:39.633Z,97953.44
2023-04-07T19:52:11.577Z,97948.81
2023-04-07T19:54:56.766Z,97947.84
2023-04-07T19:57:49.926Z,97950.81
2023-04-07T20:00:58.565Z,97954.69
2023-04-07T20:03:28.461Z,97959.00
2023-04-07T20:06:21.459Z,97966.13
2023-04-07T20:09:22.629Z,97963.06
2023-04-07T20:11:51.103Z,97963.47
2023-04-07T20:14:36.303Z,97960.94
2023-04-07T20:17:13.214Z,97964.78
2023-04-07T20:20:04.587Z,97973.31
2023-04-07T20:22:36.155Z,97968.09
2023-04-07T20:25:05.572Z,97970.31
2023-04-07T20:27:33.653Z,97972.03
2023-04-07T20:30:22.381Z,97979.28
2023-04-07T20:32:56.276Z,97975.13
2023-04-07T20:35:49.764Z,97978.00
2023-04-07T20:38:51.504Z,97980.88
2023-04-07T20:41:27.678Z,97977.47
2023-04-07T20:44:12.846Z,97970.97
2023-04-07T20:46:56.290Z,97970.13
2023-04-07T20:49:28.598Z,97975.91
2023-04-07T20:52:22.536Z,97979.72
2023-04-07T20:54:50.566Z,97984.00
2023-04-07T20:57:19.202Z,97989.56
2023-04-07T20:59:47.161Z,97984.97
2023-04-07T21:02:27.479Z,97985.94
2023-04-07T21:04:55.538Z,97989.31
2023-04-07T21:07:24.968Z,97985.59
2023-04-07T21:09:53.540Z,97985.78
2023-04-07T21:12:21.689Z,97988.78
2023-04-07T21:14:49.753Z,97986.50
2023-04-07T21:17:20.524Z,97990.47
2023-04-07T21:19:53.166Z,97990.50
2023-04-07T21:22:21.225Z,97989.97
2023-04-07T21:24:50.631Z,97990.19
2023-04-07T21:27:19.067Z,97989.66
2023-04-07T21:29:47.097Z,97984.22
2023-04-07T21:32:15.471Z,97987.94
2023-04-07T21:34:43.887Z,97994.75
2023-04-07T21:37:11.845Z,97999.38
2023-04-07T21:39:39.914Z,97990.19
2023-04-07T21:42:09.228Z,97995.09
2023-04-07T21:44:37.446Z,98001.63
2023-04-07T21:47:05.420Z,97998.75
2023-04-07T21:49:33.528Z,97995.31
2023-04-07T21:52:01.541Z,98000.09
2023-04-07T21:54:29.643Z,97983.78
2023-04-07T21:56:57.921Z,97994.97
2023-04-07T21:59:27.371Z,97990.56
2023-04-07T22:01:56.465Z,97994.00
2023-04-07T22:04:25.002Z,97995.69
2023-04-07T22:06:53.072Z,97996.69
2023-04-07T22:09:21.025Z,98000.31
2023-04-07T22:11:49.096Z,98001.56
2023-04-07T22:14:17.142Z,97996.22
2023-04-07T22:16:46.608Z,97994.66
2023-04-07T22:19:16.732Z,97992.59
2023-04-07T22:21:44.736Z,98000.31
2023-04-07T22:24:12.747Z,98001.16
2023-04-07T22:26:41.267Z,98000.91
2023-04-07T22:29:09.672Z,98002.13
2023-04-07T22:31:37.788Z,98002.31
2023-04-07T22:34:08.372Z,97994.31
2023-04-07T22:36:36.631Z,98003.81
2023-04-07T22:39:04.853Z,98002.31
2023-04-07T22:41:32.902Z,97997.59
2023-04-07T22:44:00.886Z,97996.22
2023-04-07T22:46:28.874Z,97996.91
2023-04-07T22:48:56.854Z,98001.03
2023-04-07T22:51:27.210Z,98003.75
2023-04-07T22:53:55.567Z,98004.25
2023-04-07T22:56:24.290Z,98011.75
2023-04-07T22:58:52.428Z,98016.03
2023-04-07T23:01:20.558Z,98013.66
2023-04-07T23:03:48.733Z,98008.97
2023-04-07T23:06:16.815Z,98015.94
2023-04-07T23:08:46.165Z,98023.09
2023-04-07T23:11:15.753Z,98016.97
2023-04-07T23:13:43.902Z,98022.03
2023-04-07T23:16:12.742Z,98023.50
2023-04-07T23:18:40.978Z,98030.66
2023-04-07T23:21:09.252Z,98032.69
2023-04-07T23:23:39.091Z,98050.00
2023-04-07T23:26:08.574Z,98038.56
2023-04-07T23:28:37.057Z,98046.22
2023-04-07T23:31:06.834Z,98047.41
2023-04-07T23:33:34.829Z,98046.06
2023-04-07T23:36:02.891Z,98049.34
2023-04-07T23:38:30.916Z,98052.50
2023-04-07T23:40:58.866Z,98053.97
2023-04-07T23:43:28.242Z,98049.25
2023-04-07T23:45:56.640Z,98051.94
2023-04-07T23:48:26.268Z,98047.16
2023-04-07T23:50:54.269Z,98050.88
2023-04-07T23:53:24.755Z,98059.78
2023-04-07T23:55:52.884Z,98051.13
2023-04-07T23:58:21.117Z,98054.66
